Data for 11/03/2010

Time Sea-Level Adjusted Pressure Absolute Pressure Temperature Relative Humidity Dew Point   
(mb) (inHg) (mb) (inHg) (C) (F) (%) (C) (F)
00:05 1034 30.53 863 25.48 5.8 42.4 60 -1.5 29.3
00:10 1034 30.53 863 25.48 5.4 41.8 61 -1.5 29.3
00:15 1034 30.53 863 25.48 5.7 42.2 60 -1.5 29.3
00:20 1034 30.53 863 25.48 5.9 42.6 60 -1.3 29.7
00:25 1034 30.53 863 25.48 5.3 41.5 62 -1.5 29.3
00:30 1034 30.53 863 25.48 4.9 40.8 63 -1.6 29.2
00:35 1034 30.53 863 25.48 5 40.9 63 -1.5 29.3
00:40 1034 30.53 863 25.48 5.1 41.1 61 -1.8 28.8
00:45 1034 30.53 863 25.48 5 41 62 -1.7 28.9
00:50 1034 30.53 863 25.48 5.2 41.4 61 -1.6 29.1
00:55 1034 30.53 863 25.48 5.4 41.8 61 -1.4 29.5
01:00 1034 30.53 863 25.48 5.1 41.1 62 -1.7 29
01:05 1034 30.53 863 25.48 4.9 40.8 63 -1.7 29
01:10 1034 30.53 863 25.48 4.7 40.5 63 -1.8 28.8
01:15 1034 30.53 863 25.48 4.7 40.5 63 -1.7 28.9
01:20 1034 30.53 863 25.48 4.5 40.1 64 -1.6 29.1
01:25 1034 30.53 863 25.48 4.3 39.7 65 -1.7 29
01:30 1034 30.53 863 25.48 4.4 39.8 65 -1.7 28.9
01:35 1034 30.53 863 25.48 4.6 40.3 63 -1.7 28.9
01:40 1034 30.53 863 25.48 4.6 40.3 63 -1.8 28.8
01:45 1034 30.53 863 25.48 4.5 40.1 64 -1.8 28.8
01:50 1034 30.53 863 25.48 4.2 39.6 65 -1.8 28.8
01:55 1034 30.53 863 25.48 4.1 39.3 65 -2 28.4
02:00 1034 30.53 863 25.48 4.2 39.5 65 -1.8 28.8
02:05 1034 30.53 863 25.48 4 39.2 66 -1.8 28.8
02:10 1034 30.53 863 25.48 3.8 38.9 66 -2 28.4
02:15 1034 30.53 863 25.48 4 39.2 65 -2.1 28.3
02:20 1034 30.53 864 25.51 4 39.3 66 -1.8 28.8
02:25 1034 30.53 863 25.48 3.8 38.9 67 -1.8 28.8
02:30 1034 30.53 863 25.48 3.8 38.9 66 -2 28.5
02:35 1034 30.53 864 25.51 3.6 38.4 68 -1.8 28.8
02:40 1034 30.53 864 25.51 3.2 37.8 69 -2 28.4
02:45 1034 30.53 864 25.51 3.3 38 68 -2.1 28.3
02:50 1034 30.53 864 25.51 3.3 37.9 68 -2 28.4
02:55 1034 30.53 864 25.51 3.5 38.3 67 -2.1 28.2
03:00 1035 30.56 864 25.51 3.7 38.6 66 -2 28.3
03:05 1035 30.56 864 25.51 3.8 38.8 66 -1.9 28.5
03:10 1035 30.56 864 25.51 3.7 38.7 66 -2.1 28.3
03:15 1035 30.56 864 25.51 3.8 38.9 65 -2.1 28.3
03:20 1035 30.56 864 25.51 3.8 38.8 66 -2 28.4
03:25 1035 30.56 864 25.51 3.7 38.7 66 -2 28.3
03:30 1035 30.56 864 25.51 3.6 38.5 67 -2 28.4
03:35 1035 30.56 864 25.51 3.2 37.7 69 -2 28.4
03:40 1035 30.56 864 25.51 2.9 37.3 69 -2.2 28.1
03:45 1035 30.56 864 25.51 3 37.5 68 -2.2 28.1
03:50 1035 30.56 864 25.51 3 37.4 69 -2.1 28.2
03:55 1035 30.56 864 25.51 3 37.5 68 -2.2 28.1
04:00 1035 30.56 864 25.51 2.9 37.3 69 -2.2 28
04:05 1035 30.56 864 25.51 2.8 37 70 -2.1 28.2
04:10 1035 30.56 864 25.51 2.6 36.7 71 -2.2 28.1
04:15 1035 30.56 864 25.51 2.5 36.5 71 -2.3 27.9
04:20 1035 30.56 864 25.51 2.4 36.4 71 -2.3 27.8
04:25 1035 30.56 864 25.51 2.4 36.3 71 -2.3 27.9
04:30 1035 30.56 864 25.51 2.3 36.2 71 -2.3 27.8
04:35 1035 30.56 864 25.51 2.2 35.9 72 -2.3 27.9
04:40 1035 30.56 864 25.51 1.9 35.4 73 -2.4 27.6
04:45 1035 30.56 864 25.51 1.8 35.2 73 -2.5 27.5
04:50 1035 30.56 864 25.51 1.7 35.1 73 -2.5 27.5
04:55 1035 30.56 864 25.51 1.6 35 75 -2.4 27.7
05:00 1035 30.56 864 25.51 1.2 34.2 76 -2.6 27.3
05:05 1035 30.56 864 25.51 1.3 34.3 76 -2.6 27.3
05:10 1035 30.56 864 25.51 1.4 34.5 75 -2.6 27.3
05:15 1035 30.56 864 25.51 1.3 34.4 75 -2.6 27.4
05:20 1035 30.56 864 25.51 1.9 35.5 71 -2.7 27.1
05:25 1035 30.56 864 25.51 2.5 36.4 69 -2.6 27.3
05:30 1035 30.56 864 25.51 2.2 36 71 -2.4 27.6
05:35 1035 30.56 864 25.51 1.8 35.2 73 -2.5 27.4
05:40 1035 30.56 864 25.51 1.9 35.5 71 -2.8 27
05:45 1035 30.56 864 25.51 2.4 36.4 70 -2.4 27.6
05:50 1035 30.56 864 25.51 2.6 36.6 69 -2.4 27.6
05:55 1035 30.56 864 25.51 2.7 36.9 69 -2.4 27.6
06:00 1035 30.56 864 25.51 2.4 36.4 71 -2.3 27.9
06:05 1035 30.56 864 25.51 2.1 35.8 71 -2.5 27.5
06:10 1035 30.56 864 25.51 1.8 35.3 72 -2.6 27.3
06:15 1035 30.56 864 25.51 1.5 34.7 74 -2.7 27.2
06:20 1035 30.56 865 25.54 1.3 34.4 74 -2.9 26.9
06:25 1035 30.56 865 25.54 1.4 34.5 74 -2.8 27
06:30 1035 30.56 865 25.54 1.5 34.8 73 -2.8 27
06:35 1035 30.56 865 25.54 1.8 35.3 73 -2.6 27.3
06:40 1035 30.56 865 25.54 2.2 35.9 71 -2.5 27.5
06:45 1035 30.56 865 25.54 2.5 36.5 69 -2.7 27.2
06:50 1035 30.56 865 25.54 2.4 36.4 70 -2.4 27.6
06:55 1035 30.56 865 25.54 1.9 35.4 73 -2.5 27.5
07:00 1035 30.56 865 25.54 1.9 35.4 70 -3 26.6
07:05 1035 30.56 865 25.54 1.9 35.5 72 -2.6 27.4
07:10 1035 30.56 865 25.54 1.4 34.5 74 -2.7 27.1
07:15 1035 30.56 865 25.54 1.3 34.3 75 -2.7 27.2
07:20 1035 30.56 865 25.54 1.6 34.9 74 -2.6 27.4
07:25 1035 30.56 865 25.54 2.1 35.7 71 -2.6 27.3
07:30 1035 30.56 865 25.54 2.1 35.7 72 -2.5 27.5
07:35 1035 30.56 865 25.54 2.3 36.2 69 -2.8 27
07:40 1036 30.59 865 25.54 2.3 36.1 69 -2.9 26.8
07:45 1036 30.59 865 25.54 2.2 36 69 -2.9 26.7
07:50 1036 30.59 865 25.54 2.1 35.7 69 -3 26.7
07:55 1036 30.59 865 25.54 2.1 35.8 71 -2.6 27.3
08:00 1036 30.59 865 25.54 1.8 35.2 73 -2.5 27.5
08:05 1036 30.59 865 25.54 1 33.8 76 -2.7 27.1
08:10 1036 30.59 865 25.54 0.6 33.1 78 -2.8 27
08:15 1036 30.59 865 25.54 0.8 33.5 76 -2.9 26.8
08:20 1036 30.59 865 25.54 1.2 34.2 75 -2.7 27.1
08:25 1036 30.59 865 25.54 1.2 34.1 75 -2.8 27
08:30 1036 30.59 865 25.54 1.3 34.4 74 -2.9 26.9
08:35 1036 30.59 865 25.54 1.7 35.1 72 -2.8 27
08:40 1036 30.59 865 25.54 1.9 35.4 72 -2.7 27.2
08:45 1036 30.59 865 25.54 1.8 35.3 72 -2.7 27.1
08:50 1036 30.59 865 25.54 1.9 35.4 71 -2.8 27
08:55 1036 30.59 865 25.54 2.2 35.9 70 -2.8 26.9
09:00 1036 30.59 865 25.54 2.4 36.4 69 -2.8 27
09:05 1036 30.59 865 25.54 2.8 37.1 67 -2.7 27.1
09:10 1036 30.59 865 25.54 3.2 37.8 66 -2.6 27.3
09:15 1036 30.59 865 25.54 3.4 38.2 65 -2.6 27.3
09:20 1036 30.59 865 25.54 3.7 38.7 63 -2.6 27.4
09:25 1036 30.59 865 25.54 4.1 39.3 62 -2.6 27.4
09:30 1036 30.59 865 25.54 4.4 40 61 -2.4 27.6
09:35 1036 30.59 865 25.54 4.7 40.5 59 -2.5 27.5
09:40 1036 30.59 866 25.57 4.6 40.3 60 -2.6 27.4
09:45 1036 30.59 866 25.57 4.9 40.8 59 -2.3 27.8
09:50 1036 30.59 866 25.57 5.6 42.1 56 -2.6 27.4
09:55 1037 30.62 866 25.57 6.2 43.1 55 -2.2 28.1
10:00 1037 30.62 866 25.57 6.2 43.2 55 -2.2 28
10:05 1037 30.62 866 25.57 5.9 42.7 58 -1.7 29
10:10 1037 30.62 866 25.57 6.1 43 56 -2 28.3
10:15 1037 30.62 866 25.57 6.3 43.3 55 -2.1 28.3
10:20 1037 30.62 866 25.57 6.7 44.1 54 -2 28.5
10:25 1037 30.62 866 25.57 6.9 44.4 53 -2 28.5
10:30 1037 30.62 866 25.57 6.9 44.4 54 -1.7 28.9
10:35 1037 30.62 866 25.57 6.8 44.3 52 -2.2 28
10:40 1037 30.62 866 25.57 7.1 44.7 54 -1.5 29.2
10:45 1037 30.62 866 25.57 7.1 44.7 53 -1.8 28.8
10:50 1037 30.62 866 25.57 7.4 45.3 52 -1.8 28.8
10:55 1037 30.62 866 25.57 8 46.3 50 -1.8 28.8
11:00 1037 30.62 866 25.57 8.2 46.7 51 -1.4 29.5
11:05 1036 30.59 866 25.57 7.8 46 51 -1.8 28.7
11:10 1036 30.59 866 25.57 8.2 46.8 48 -2.1 28.3
11:15 1036 30.59 866 25.57 8.7 47.6 48 -1.7 28.9
11:20 1036 30.59 866 25.57 8.7 47.6 47 -1.9 28.5
11:25 1036 30.59 866 25.57 9.1 48.4 45 -2 28.3
11:30 1036 30.59 866 25.57 9.3 48.7 46 -1.6 29.1
11:35 1036 30.59 865 25.54 9 48.2 46 -2 28.4
11:40 1036 30.59 865 25.54 8.8 47.8 45 -2.5 27.5
11:45 1036 30.59 865 25.54 9.1 48.4 45 -2.3 27.9
11:50 1036 30.59 865 25.54 9.4 48.8 44 -2.3 27.8
11:55 1036 30.59 865 25.54 9.8 49.6 42 -2.5 27.6
12:00 1036 30.59 865 25.54 10.4 50.8 42 -1.8 28.8
12:05 1036 30.59 865 25.54 9.5 49 45 -2 28.5
12:10 1036 30.59 865 25.54 9.7 49.5 43 -2.1 28.1
12:15 1036 30.59 865 25.54 10.1 50.1 43 -1.9 28.6
12:20 1036 30.59 865 25.54 10.3 50.5 41 -2.4 27.6
12:25 1036 30.59 865 25.54 10.7 51.2 40 -2.2 28.1
12:30 1035 30.56 865 25.54 11 51.8 41 -1.7 28.9
12:35 1035 30.56 865 25.54 10.6 51 41 -2.1 28.3
12:40 1035 30.56 865 25.54 11.4 52.5 38 -2.3 27.8
12:45 1035 30.56 864 25.51 11.5 52.8 40 -1.4 29.4
12:50 1035 30.56 864 25.51 11.6 52.8 38 -2.3 27.9
12:55 1035 30.56 864 25.51 11.9 53.4 37 -2.1 28.2
13:00 1035 30.56 864 25.51 11.5 52.8 39 -2.1 28.3
13:05 1035 30.56 864 25.51 11.1 52.1 39 -2.1 28.2
13:10 1035 30.56 864 25.51 12 53.7 37 -2.3 27.9
13:15 1035 30.56 864 25.51 12.7 54.8 37 -1.7 28.9
13:20 1035 30.56 864 25.51 11.4 52.6 39 -1.9 28.6
13:25 1034 30.53 864 25.51 11.4 52.5 40 -1.7 28.9
13:30 1034 30.53 863 25.48 12 53.6 40 -1.1 30
13:35 1034 30.53 863 25.48 11.3 52.3 40 -1.9 28.6
13:40 1034 30.53 863 25.48 12.8 55 38 -1.2 29.9
13:45 1034 30.53 863 25.48 11.4 52.6 41 -1.3 29.6
13:50 1034 30.53 863 25.48 11.6 53 45 0.1 32.3
13:55 1034 30.53 863 25.48 11.3 52.3 41 -1.3 29.6
14:00 1034 30.53 863 25.48 12.8 55 36 -1.7 29
14:05 1034 30.53 863 25.48 12.2 54 39 -1.2 29.8
14:10 1034 30.53 863 25.48 11.5 52.7 43 -0.6 30.9
14:15 1034 30.53 863 25.48 11.4 52.6 40 -1.6 29.1
14:20 1034 30.53 863 25.48 11.9 53.4 40 -1.4 29.5
14:25 1034 30.53 863 25.48 12.9 55.2 38 -1.1 30
14:30 1034 30.53 863 25.48 12.6 54.7 39 -1 30.2
14:35 1034 30.53 863 25.48 13.2 55.7 36 -1.6 29.2
14:40 1034 30.53 863 25.48 13.4 56.1 36 -1.3 29.7
14:45 1034 30.53 863 25.48 13 55.3 37 -1.3 29.6
14:50 1034 30.53 863 25.48 13.5 56.2 36 -1.3 29.6
14:55 1034 30.53 863 25.48 13.4 56.2 37 -0.8 30.6
15:00 1034 30.53 863 25.48 13.3 56 35 -1.6 29.1
15:05 1034 30.53 863 25.48 13.7 56.6 34 -1.9 28.5
15:10 1034 30.53 863 25.48 13.3 56 36 -1.2 29.9
15:15 1034 30.53 863 25.48 13.3 56 35 -1.6 29.2
15:20 1034 30.53 863 25.48 12.7 54.9 38 -1.1 29.9
15:25 1033 30.5 863 25.48 13.2 55.7 35 -1.8 28.7
15:30 1033 30.5 863 25.48 13.5 56.3 36 -1.4 29.5
15:35 1033 30.5 863 25.48 12.8 55 36 -2 28.5
15:40 1033 30.5 862 25.45 12.7 54.8 38 -1.1 29.9
15:45 1033 30.5 862 25.45 12.8 55.1 36 -1.9 28.7
15:50 1033 30.5 862 25.45 13.1 55.6 36 -1.7 28.9
15:55 1033 30.5 862 25.45 12.2 54 39 -1.2 29.8
16:00 1033 30.5 862 25.45 12.2 54 37 -2.1 28.2
16:05 1033 30.5 862 25.45 13.1 55.5 35 -2.1 28.3
16:10 1033 30.5 862 25.45 13.7 56.7 35 -1.4 29.4
16:15 1033 30.5 862 25.45 13.3 56 34 -2.2 28.1
16:20 1033 30.5 862 25.45 13.2 55.8 36 -1.6 29.1
16:25 1033 30.5 862 25.45 12.5 54.5 39 -1.1 30
16:30 1033 30.5 862 25.45 12.6 54.7 37 -1.8 28.8
16:35 1033 30.5 862 25.45 12.3 54.2 38 -1.7 29
16:40 1033 30.5 862 25.45 12 53.7 37 -2 28.4
16:45 1033 30.5 862 25.45 12.5 54.5 37 -1.7 28.9
16:50 1033 30.5 862 25.45 12.4 54.2 36 -2.1 28.3
16:55 1033 30.5 862 25.45 13 55.3 35 -2 28.5
17:00 1033 30.5 862 25.45 12.6 54.6 36 -1.9 28.6
17:05 1033 30.5 862 25.45 12.8 55 35 -2.1 28.2
17:10 1033 30.5 862 25.45 13.1 55.7 35 -1.9 28.7
17:15 1033 30.5 862 25.45 12.7 54.9 36 -1.8 28.8
17:20 1033 30.5 862 25.45 12 53.5 39 -1.6 29.1
17:25 1033 30.5 862 25.45 11.6 52.8 39 -1.8 28.8
17:30 1033 30.5 862 25.45 11.4 52.5 40 -1.8 28.7
17:35 1033 30.5 862 25.45 11.4 52.5 40 -1.8 28.7
17:40 1033 30.5 862 25.45 11.2 52.1 40 -2 28.3
17:45 1033 30.5 862 25.45 10.9 51.6 40 -2.2 28
17:50 1033 30.5 862 25.45 10.7 51.3 41 -2.1 28.3
17:55 1033 30.5 862 25.45 10.6 51.1 40 -2.4 27.7
18:00 1033 30.5 862 25.45 10.3 50.5 41 -2.4 27.7
18:05 1033 30.5 862 25.45 10 50 41 -2.5 27.4
18:10 1032 30.47 862 25.45 9.8 49.6 42 -2.5 27.5
18:15 1032 30.47 862 25.45 9.7 49.4 43 -2.4 27.7
18:20 1032 30.47 862 25.45 9.6 49.2 42 -2.7 27.1
18:25 1032 30.47 862 25.45 9.6 49.2 41 -2.9 26.9
18:30 1032 30.47 862 25.45 9.2 48.6 40 -3.7 25.4
18:35 1032 30.47 862 25.45 8.9 48 39 -4.4 24.1
18:40 1032 30.47 862 25.45 8.5 47.3 41 -3.8 25.1
18:45 1032 30.47 861 25.43 8.2 46.7 48 -2.1 28.2
18:50 1032 30.47 861 25.43 7.7 45.9 47 -2.8 27
18:55 1032 30.47 861 25.43 7.6 45.7 45 -3.4 25.8
19:00 1032 30.47 861 25.43 7.7 45.8 44 -4 24.9
19:05 1032 30.47 861 25.43 7.8 46 43 -4 24.8
19:10 1032 30.47 861 25.43 7.9 46.2 43 -3.9 24.9
19:15 1032 30.47 861 25.43 8.1 46.5 43 -3.8 25.2
19:20 1032 30.47 861 25.43 8.2 46.7 44 -3.4 26
19:25 1032 30.47 861 25.43 8.2 46.7 44 -3.3 26.1
19:30 1032 30.47 861 25.43 8.4 47.1 43 -3.3 26
19:35 1032 30.47 861 25.43 8.5 47.3 42 -3.6 25.6
19:40 1032 30.47 861 25.43 8.5 47.3 42 -3.7 25.3
19:45 1032 30.47 861 25.43 8.4 47.1 42 -3.8 25.2
19:50 1032 30.47 861 25.43 8.4 47.1 41 -4 24.7
19:55 1032 30.47 861 25.43 8.4 47.1 41 -4 24.7
20:00 1032 30.47 861 25.43 8.3 47 41 -4 24.8
20:05 1032 30.47 861 25.43 8.3 46.9 42 -4 24.8
20:10 1032 30.47 861 25.43 8.3 46.9 42 -3.8 25.1
20:15 1032 30.47 861 25.43 8.2 46.7 42 -3.8 25.1
20:20 1032 30.47 861 25.43 8.2 46.7 42 -3.8 25.1
20:25 1032 30.47 861 25.43 8.1 46.5 43 -3.8 25.1
20:30 1032 30.47 861 25.43 7.8 46.1 44 -3.7 25.3
20:35 1032 30.47 861 25.43 7.7 45.8 44 -3.7 25.3
20:40 1032 30.47 861 25.43 7.6 45.8 44 -3.7 25.3
20:45 1032 30.47 861 25.43 7.6 45.6 44 -3.8 25.2
20:50 1032 30.47 861 25.43 7.6 45.7 45 -3.7 25.3
20:55 1032 30.47 861 25.43 7.5 45.5 45 -3.6 25.5
21:00 1032 30.47 861 25.43 7.4 45.4 45 -3.7 25.4
21:05 1032 30.47 861 25.43 7.4 45.3 45 -3.8 25.2
21:10 1032 30.47 861 25.43 7.2 45 46 -3.7 25.4
21:15 1032 30.47 861 25.43 6.5 43.8 53 -2.4 27.6
21:20 1032 30.47 861 25.43 5.6 42.1 55 -2.7 27.2
21:25 1032 30.47 861 25.43 4.9 40.8 60 -2.2 28.1
21:30 1032 30.47 861 25.43 4.5 40.1 61 -2.4 27.6
21:35 1032 30.47 861 25.43 4.7 40.4 59 -2.6 27.3
21:40 1032 30.47 861 25.43 4.8 40.6 59 -2.6 27.3
21:45 1032 30.47 861 25.43 4.8 40.7 57 -2.9 26.7
21:50 1032 30.47 861 25.43 5.1 41.1 56 -3 26.5
21:55 1032 30.47 861 25.43 4.9 40.9 58 -2.6 27.3
22:00 1032 30.47 861 25.43 4.8 40.6 57 -3.1 26.4
22:05 1032 30.47 861 25.43 4.7 40.5 57 -3.2 26.3
22:10 1032 30.47 861 25.43 4.6 40.4 57 -3.1 26.4
22:15 1031 30.45 861 25.43 4.5 40.1 58 -3 26.5
22:20 1031 30.45 861 25.43 4.4 39.9 59 -2.8 27
22:25 1031 30.45 861 25.43 4.2 39.6 61 -2.6 27.3
22:30 1031 30.45 861 25.43 4.1 39.4 62 -2.6 27.3
22:35 1031 30.45 861 25.43 3.9 39.1 61 -2.9 26.8
22:40 1031 30.45 861 25.43 4 39.2 61 -2.8 26.9
22:45 1031 30.45 861 25.43 3.9 38.9 62 -2.7 27.1
22:50 1031 30.45 861 25.43 3.5 38.2 63 -2.9 26.7
22:55 1031 30.45 861 25.43 3.5 38.4 62 -3 26.5
23:00 1031 30.45 861 25.43 3.5 38.3 61 -3.2 26.2
23:05 1031 30.45 861 25.43 3.8 38.8 61 -3.2 26.3
23:10 1031 30.45 861 25.43 3.9 38.9 61 -3.1 26.5
23:15 1031 30.45 861 25.43 4 39.1 60 -3.1 26.4
23:20 1031 30.45 861 25.43 3.7 38.7 59 -3.5 25.7
23:25 1031 30.45 861 25.43 3.9 39 60 -3.2 26.3
23:30 1031 30.45 861 25.43 3.7 38.6 61 -3.2 26.3
23:35 1031 30.45 861 25.43 3.6 38.5 60 -3.5 25.7
23:40 1031 30.45 860 25.4 3.7 38.7 59 -3.5 25.7
23:45 1031 30.45 860 25.4 3.6 38.5 60 -3.5 25.8
23:50 1031 30.45 860 25.4 3.2 37.8 60 -3.7 25.3
23:55 1031 30.45 860 25.4 3.6 38.4 58 -3.8 25.1
24:00 1031 30.45 860 25.4 3.6 38.6 59 -3.6 25.5